sensor_id;sensor_type;location;lat;lon;timestamp;P1;durP1;ratioP1;P2;durP2;ratioP2
34643;SDS011;26931;43.498;-1.506;2023-05-10T00:01:24;34.33;;;7.50;;
34643;SDS011;26931;43.498;-1.506;2023-05-10T00:03:50;29.50;;;6.55;;
34643;SDS011;26931;43.498;-1.506;2023-05-10T00:06:16;26.42;;;5.97;;
34643;SDS011;26931;43.498;-1.506;2023-05-10T00:08:43;23.33;;;5.72;;
34643;SDS011;26931;43.498;-1.506;2023-05-10T00:11:09;25.58;;;5.63;;
34643;SDS011;26931;43.498;-1.506;2023-05-10T00:13:35;24.85;;;6.38;;
34643;SDS011;26931;43.498;-1.506;2023-05-10T00:16:01;19.00;;;4.63;;
34643;SDS011;26931;43.498;-1.506;2023-05-10T00:18:28;21.70;;;4.93;;
34643;SDS011;26931;43.498;-1.506;2023-05-10T00:20:54;26.42;;;5.20;;
34643;SDS011;26931;43.498;-1.506;2023-05-10T00:23:20;21.00;;;5.15;;
34643;SDS011;26931;43.498;-1.506;2023-05-10T00:25:46;23.08;;;5.40;;
34643;SDS011;26931;43.498;-1.506;2023-05-10T00:28:12;23.58;;;4.97;;
34643;SDS011;26931;43.498;-1.506;2023-05-10T00:30:38;24.98;;;5.63;;
34643;SDS011;26931;43.498;-1.506;2023-05-10T00:33:04;21.00;;;5.07;;
34643;SDS011;26931;43.498;-1.506;2023-05-10T00:35:30;25.02;;;6.30;;
34643;SDS011;26931;43.498;-1.506;2023-05-10T00:37:56;19.20;;;5.03;;
34643;SDS011;26931;43.498;-1.506;2023-05-10T00:40:22;17.83;;;4.75;;
34643;SDS011;26931;43.498;-1.506;2023-05-10T00:42:48;19.77;;;4.97;;
34643;SDS011;26931;43.498;-1.506;2023-05-10T00:45:14;21.77;;;5.00;;
34643;SDS011;26931;43.498;-1.506;2023-05-10T00:47:40;17.45;;;4.97;;
34643;SDS011;26931;43.498;-1.506;2023-05-10T00:50:06;24.02;;;5.43;;
34643;SDS011;26931;43.498;-1.506;2023-05-10T00:52:34;22.60;;;4.53;;
34643;SDS011;26931;43.498;-1.506;2023-05-10T00:55:00;20.10;;;4.68;;
34643;SDS011;26931;43.498;-1.506;2023-05-10T00:57:28;24.00;;;5.68;;
34643;SDS011;26931;43.498;-1.506;2023-05-10T00:59:54;16.30;;;5.10;;
34643;SDS011;26931;43.498;-1.506;2023-05-10T01:02:20;21.88;;;4.70;;
34643;SDS011;26931;43.498;-1.506;2023-05-10T01:04:46;21.85;;;5.30;;
34643;SDS011;26931;43.498;-1.506;2023-05-10T01:07:12;22.30;;;4.80;;
34643;SDS011;26931;43.498;-1.506;2023-05-10T01:09:38;23.35;;;4.75;;
34643;SDS011;26931;43.498;-1.506;2023-05-10T01:12:05;19.73;;;4.93;;
34643;SDS011;26931;43.498;-1.506;2023-05-10T01:14:32;22.70;;;4.47;;
34643;SDS011;26931;43.498;-1.506;2023-05-10T01:17:01;21.98;;;4.75;;
34643;SDS011;26931;43.498;-1.506;2023-05-10T01:19:28;29.75;;;5.55;;
34643;SDS011;26931;43.498;-1.506;2023-05-10T01:22:04;20.98;;;5.18;;
34643;SDS011;26931;43.498;-1.506;2023-05-10T01:24:58;19.27;;;4.57;;
34643;SDS011;26931;43.498;-1.506;2023-05-10T01:27:47;15.00;;;4.45;;
34643;SDS011;26931;43.498;-1.506;2023-05-10T01:30:47;21.85;;;5.22;;
34643;SDS011;26931;43.498;-1.506;2023-05-10T01:33:24;17.85;;;4.03;;
34643;SDS011;26931;43.498;-1.506;2023-05-10T01:36:02;21.15;;;4.63;;
34643;SDS011;26931;43.498;-1.506;2023-05-10T01:38:49;22.35;;;5.07;;
34643;SDS011;26931;43.498;-1.506;2023-05-10T01:41:19;24.40;;;5.80;;
34643;SDS011;26931;43.498;-1.506;2023-05-10T01:44:08;24.75;;;5.32;;
34643;SDS011;26931;43.498;-1.506;2023-05-10T01:46:42;23.92;;;4.80;;
34643;SDS011;26931;43.498;-1.506;2023-05-10T01:49:09;25.52;;;4.93;;
34643;SDS011;26931;43.498;-1.506;2023-05-10T01:51:46;22.20;;;4.97;;
34643;SDS011;26931;43.498;-1.506;2023-05-10T01:56:56;19.75;;;4.82;;
34643;SDS011;26931;43.498;-1.506;2023-05-10T01:59:34;19.65;;;4.57;;
34643;SDS011;26931;43.498;-1.506;2023-05-10T02:02:02;21.45;;;4.15;;
34643;SDS011;26931;43.498;-1.506;2023-05-10T02:04:30;13.02;;;4.40;;
34643;SDS011;26931;43.498;-1.506;2023-05-10T02:06:57;19.05;;;4.13;;
34643;SDS011;26931;43.498;-1.506;2023-05-10T02:09:23;18.95;;;5.00;;
34643;SDS011;26931;43.498;-1.506;2023-05-10T02:11:53;22.95;;;5.38;;
34643;SDS011;26931;43.498;-1.506;2023-05-10T02:14:20;22.17;;;5.35;;
34643;SDS011;26931;43.498;-1.506;2023-05-10T02:16:49;19.73;;;4.55;;
34643;SDS011;26931;43.498;-1.506;2023-05-10T02:19:18;17.48;;;4.18;;
34643;SDS011;26931;43.498;-1.506;2023-05-10T02:21:45;19.88;;;5.10;;
34643;SDS011;26931;43.498;-1.506;2023-05-10T02:24:12;27.95;;;5.15;;
34643;SDS011;26931;43.498;-1.506;2023-05-10T02:26:41;16.05;;;4.55;;
34643;SDS011;26931;43.498;-1.506;2023-05-10T02:29:09;24.45;;;4.47;;
34643;SDS011;26931;43.498;-1.506;2023-05-10T02:31:38;25.00;;;5.15;;
34643;SDS011;26931;43.498;-1.506;2023-05-10T02:34:05;17.73;;;4.82;;
34643;SDS011;26931;43.498;-1.506;2023-05-10T02:36:33;23.20;;;5.07;;
34643;SDS011;26931;43.498;-1.506;2023-05-10T02:38:59;25.80;;;4.90;;
34643;SDS011;26931;43.498;-1.506;2023-05-10T02:41:27;23.15;;;5.15;;
34643;SDS011;26931;43.498;-1.506;2023-05-10T02:43:55;22.95;;;5.28;;
34643;SDS011;26931;43.498;-1.506;2023-05-10T02:46:25;18.75;;;4.93;;
34643;SDS011;26931;43.498;-1.506;2023-05-10T02:48:51;21.90;;;5.07;;
34643;SDS011;26931;43.498;-1.506;2023-05-10T02:51:18;17.85;;;4.20;;
34643;SDS011;26931;43.498;-1.506;2023-05-10T02:53:47;19.73;;;5.43;;
34643;SDS011;26931;43.498;-1.506;2023-05-10T02:56:23;19.42;;;4.18;;
34643;SDS011;26931;43.498;-1.506;2023-05-10T02:58:54;24.38;;;4.82;;
34643;SDS011;26931;43.498;-1.506;2023-05-10T03:01:20;21.23;;;4.55;;
34643;SDS011;26931;43.498;-1.506;2023-05-10T03:03:46;19.50;;;4.72;;
34643;SDS011;26931;43.498;-1.506;2023-05-10T03:06:13;16.38;;;4.85;;
34643;SDS011;26931;43.498;-1.506;2023-05-10T03:08:39;16.73;;;4.13;;
34643;SDS011;26931;43.498;-1.506;2023-05-10T03:13:54;21.83;;;4.22;;
34643;SDS011;26931;43.498;-1.506;2023-05-10T03:16:34;17.33;;;4.05;;
34643;SDS011;26931;43.498;-1.506;2023-05-10T03:19:07;23.48;;;5.00;;
34643;SDS011;26931;43.498;-1.506;2023-05-10T03:21:54;21.05;;;4.72;;
34643;SDS011;26931;43.498;-1.506;2023-05-10T03:24:25;18.73;;;4.35;;
34643;SDS011;26931;43.498;-1.506;2023-05-10T03:26:54;23.13;;;4.40;;
34643;SDS011;26931;43.498;-1.506;2023-05-10T03:29:22;24.27;;;4.45;;
34643;SDS011;26931;43.498;-1.506;2023-05-10T03:31:50;24.90;;;5.35;;
34643;SDS011;26931;43.498;-1.506;2023-05-10T03:34:16;17.98;;;4.28;;
34643;SDS011;26931;43.498;-1.506;2023-05-10T03:36:48;21.52;;;4.40;;
34643;SDS011;26931;43.498;-1.506;2023-05-10T03:39:14;18.33;;;4.18;;
34643;SDS011;26931;43.498;-1.506;2023-05-10T03:41:40;17.88;;;4.25;;
34643;SDS011;26931;43.498;-1.506;2023-05-10T03:44:06;19.23;;;4.60;;
34643;SDS011;26931;43.498;-1.506;2023-05-10T03:46:32;15.98;;;4.75;;
34643;SDS011;26931;43.498;-1.506;2023-05-10T03:48:58;20.42;;;4.85;;
34643;SDS011;26931;43.498;-1.506;2023-05-10T03:51:24;18.85;;;4.65;;
34643;SDS011;26931;43.498;-1.506;2023-05-10T03:53:53;21.80;;;4.50;;
34643;SDS011;26931;43.498;-1.506;2023-05-10T03:56:20;19.95;;;4.57;;
34643;SDS011;26931;43.498;-1.506;2023-05-10T03:58:46;17.55;;;4.20;;
34643;SDS011;26931;43.498;-1.506;2023-05-10T04:01:12;21.63;;;4.50;;
34643;SDS011;26931;43.498;-1.506;2023-05-10T04:03:38;23.40;;;5.72;;
34643;SDS011;26931;43.498;-1.506;2023-05-10T04:06:05;15.32;;;4.25;;
34643;SDS011;26931;43.498;-1.506;2023-05-10T04:08:33;17.52;;;4.18;;
34643;SDS011;26931;43.498;-1.506;2023-05-10T04:11:06;25.70;;;5.28;;
34643;SDS011;26931;43.498;-1.506;2023-05-10T04:15:59;16.33;;;4.43;;
34643;SDS011;26931;43.498;-1.506;2023-05-10T04:18:25;20.05;;;4.95;;
34643;SDS011;26931;43.498;-1.506;2023-05-10T04:20:51;21.17;;;4.95;;
34643;SDS011;26931;43.498;-1.506;2023-05-10T04:23:17;20.00;;;4.43;;
34643;SDS011;26931;43.498;-1.506;2023-05-10T04:25:43;13.95;;;4.05;;
34643;SDS011;26931;43.498;-1.506;2023-05-10T04:28:10;17.65;;;5.13;;
34643;SDS011;26931;43.498;-1.506;2023-05-10T04:30:36;14.30;;;4.45;;
34643;SDS011;26931;43.498;-1.506;2023-05-10T04:33:02;23.33;;;4.60;;
34643;SDS011;26931;43.498;-1.506;2023-05-10T04:35:28;15.90;;;4.60;;
34643;SDS011;26931;43.498;-1.506;2023-05-10T04:37:54;20.92;;;5.10;;
34643;SDS011;26931;43.498;-1.506;2023-05-10T04:40:20;17.80;;;4.25;;
34643;SDS011;26931;43.498;-1.506;2023-05-10T04:42:50;20.55;;;4.93;;
34643;SDS011;26931;43.498;-1.506;2023-05-10T04:45:16;18.15;;;5.03;;
34643;SDS011;26931;43.498;-1.506;2023-05-10T04:47:42;17.50;;;4.30;;
34643;SDS011;26931;43.498;-1.506;2023-05-10T04:50:08;18.98;;;4.53;;
34643;SDS011;26931;43.498;-1.506;2023-05-10T04:52:37;20.52;;;4.75;;
34643;SDS011;26931;43.498;-1.506;2023-05-10T04:55:03;23.48;;;5.53;;
34643;SDS011;26931;43.498;-1.506;2023-05-10T04:57:31;22.42;;;4.35;;
34643;SDS011;26931;43.498;-1.506;2023-05-10T04:59:57;17.38;;;4.05;;
34643;SDS011;26931;43.498;-1.506;2023-05-10T05:02:25;17.42;;;4.43;;
34643;SDS011;26931;43.498;-1.506;2023-05-10T05:04:51;21.42;;;4.80;;
34643;SDS011;26931;43.498;-1.506;2023-05-10T05:07:17;24.13;;;6.15;;
34643;SDS011;26931;43.498;-1.506;2023-05-10T05:09:43;16.25;;;4.38;;
34643;SDS011;26931;43.498;-1.506;2023-05-10T05:12:10;21.55;;;5.28;;
34643;SDS011;26931;43.498;-1.506;2023-05-10T05:14:39;21.90;;;5.68;;
34643;SDS011;26931;43.498;-1.506;2023-05-10T05:17:06;16.88;;;4.55;;
34643;SDS011;26931;43.498;-1.506;2023-05-10T05:19:32;25.42;;;6.20;;
34643;SDS011;26931;43.498;-1.506;2023-05-10T05:21:58;22.83;;;6.03;;
34643;SDS011;26931;43.498;-1.506;2023-05-10T05:24:24;22.25;;;4.78;;
34643;SDS011;26931;43.498;-1.506;2023-05-10T05:26:50;19.50;;;5.03;;
34643;SDS011;26931;43.498;-1.506;2023-05-10T05:29:16;22.20;;;5.43;;
34643;SDS011;26931;43.498;-1.506;2023-05-10T05:31:42;21.40;;;5.25;;
34643;SDS011;26931;43.498;-1.506;2023-05-10T05:34:08;22.45;;;5.30;;
34643;SDS011;26931;43.498;-1.506;2023-05-10T05:36:35;20.75;;;4.97;;
34643;SDS011;26931;43.498;-1.506;2023-05-10T05:39:03;23.48;;;5.80;;
34643;SDS011;26931;43.498;-1.506;2023-05-10T05:41:31;23.20;;;6.68;;
34643;SDS011;26931;43.498;-1.506;2023-05-10T05:43:57;22.40;;;5.50;;
34643;SDS011;26931;43.498;-1.506;2023-05-10T05:46:23;25.95;;;5.65;;
34643;SDS011;26931;43.498;-1.506;2023-05-10T05:48:49;21.25;;;5.05;;
34643;SDS011;26931;43.498;-1.506;2023-05-10T05:51:15;24.05;;;5.18;;
34643;SDS011;26931;43.498;-1.506;2023-05-10T05:53:42;20.63;;;6.00;;
34643;SDS011;26931;43.498;-1.506;2023-05-10T05:56:08;21.20;;;5.53;;
34643;SDS011;26931;43.498;-1.506;2023-05-10T05:58:34;23.17;;;5.32;;
34643;SDS011;26931;43.498;-1.506;2023-05-10T06:01:00;16.27;;;4.65;;
34643;SDS011;26931;43.498;-1.506;2023-05-10T06:03:26;16.27;;;4.13;;
34643;SDS011;26931;43.498;-1.506;2023-05-10T06:05:52;20.00;;;4.97;;
34643;SDS011;26931;43.498;-1.506;2023-05-10T06:08:19;21.05;;;6.70;;
34643;SDS011;26931;43.498;-1.506;2023-05-10T06:10:45;21.35;;;5.93;;
34643;SDS011;26931;43.498;-1.506;2023-05-10T06:13:11;15.82;;;5.20;;
34643;SDS011;26931;43.498;-1.506;2023-05-10T06:15:38;15.35;;;4.90;;
34643;SDS011;26931;43.498;-1.506;2023-05-10T06:18:04;23.95;;;7.45;;
34643;SDS011;26931;43.498;-1.506;2023-05-10T06:20:31;22.20;;;7.15;;
34643;SDS011;26931;43.498;-1.506;2023-05-10T06:22:57;13.40;;;4.45;;
34643;SDS011;26931;43.498;-1.506;2023-05-10T06:25:23;19.15;;;5.82;;
34643;SDS011;26931;43.498;-1.506;2023-05-10T06:27:49;16.38;;;5.47;;
34643;SDS011;26931;43.498;-1.506;2023-05-10T06:30:15;20.25;;;4.88;;
34643;SDS011;26931;43.498;-1.506;2023-05-10T06:32:41;20.60;;;5.10;;
34643;SDS011;26931;43.498;-1.506;2023-05-10T06:35:09;18.08;;;5.10;;
34643;SDS011;26931;43.498;-1.506;2023-05-10T06:37:35;16.60;;;4.15;;
34643;SDS011;26931;43.498;-1.506;2023-05-10T06:40:01;20.17;;;5.25;;
34643;SDS011;26931;43.498;-1.506;2023-05-10T06:42:27;22.30;;;4.28;;
34643;SDS011;26931;43.498;-1.506;2023-05-10T06:44:53;12.18;;;4.15;;
34643;SDS011;26931;43.498;-1.506;2023-05-10T06:47:19;17.08;;;4.75;;
34643;SDS011;26931;43.498;-1.506;2023-05-10T06:49:45;18.92;;;4.68;;
34643;SDS011;26931;43.498;-1.506;2023-05-10T06:52:11;18.85;;;3.97;;
34643;SDS011;26931;43.498;-1.506;2023-05-10T06:54:37;20.27;;;5.68;;
34643;SDS011;26931;43.498;-1.506;2023-05-10T06:57:03;20.77;;;4.88;;
34643;SDS011;26931;43.498;-1.506;2023-05-10T06:59:29;20.67;;;5.57;;
34643;SDS011;26931;43.498;-1.506;2023-05-10T07:01:56;22.67;;;5.40;;
34643;SDS011;26931;43.498;-1.506;2023-05-10T07:04:22;17.25;;;4.35;;
34643;SDS011;26931;43.498;-1.506;2023-05-10T07:06:48;13.60;;;4.25;;
34643;SDS011;26931;43.498;-1.506;2023-05-10T07:09:14;20.95;;;4.45;;
34643;SDS011;26931;43.498;-1.506;2023-05-10T07:11:41;16.13;;;4.38;;
34643;SDS011;26931;43.498;-1.506;2023-05-10T07:14:07;22.90;;;4.88;;
34643;SDS011;26931;43.498;-1.506;2023-05-10T07:16:33;17.90;;;4.03;;
34643;SDS011;26931;43.498;-1.506;2023-05-10T07:18:59;16.42;;;4.28;;
34643;SDS011;26931;43.498;-1.506;2023-05-10T07:21:25;18.45;;;4.95;;
34643;SDS011;26931;43.498;-1.506;2023-05-10T07:23:53;18.58;;;4.35;;
34643;SDS011;26931;43.498;-1.506;2023-05-10T07:26:19;19.05;;;4.47;;
34643;SDS011;26931;43.498;-1.506;2023-05-10T07:28:46;17.70;;;4.70;;
34643;SDS011;26931;43.498;-1.506;2023-05-10T07:31:12;15.23;;;4.47;;
34643;SDS011;26931;43.498;-1.506;2023-05-10T07:33:38;25.42;;;5.07;;
34643;SDS011;26931;43.498;-1.506;2023-05-10T07:36:04;17.50;;;4.55;;
34643;SDS011;26931;43.498;-1.506;2023-05-10T07:38:31;32.78;;;6.72;;
34643;SDS011;26931;43.498;-1.506;2023-05-10T07:40:57;22.98;;;5.15;;
34643;SDS011;26931;43.498;-1.506;2023-05-10T07:43:23;16.83;;;4.40;;
34643;SDS011;26931;43.498;-1.506;2023-05-10T07:45:49;13.02;;;3.88;;
34643;SDS011;26931;43.498;-1.506;2023-05-10T07:48:15;12.70;;;3.72;;
34643;SDS011;26931;43.498;-1.506;2023-05-10T07:50:42;12.45;;;4.07;;
34643;SDS011;26931;43.498;-1.506;2023-05-10T07:53:08;16.10;;;4.72;;
34643;SDS011;26931;43.498;-1.506;2023-05-10T07:55:35;12.77;;;4.47;;
34643;SDS011;26931;43.498;-1.506;2023-05-10T07:58:01;15.90;;;4.03;;
34643;SDS011;26931;43.498;-1.506;2023-05-10T08:00:27;17.10;;;4.55;;
34643;SDS011;26931;43.498;-1.506;2023-05-10T08:02:53;14.10;;;4.40;;
34643;SDS011;26931;43.498;-1.506;2023-05-10T08:05:19;14.77;;;4.13;;
34643;SDS011;26931;43.498;-1.506;2023-05-10T08:07:45;16.52;;;4.63;;
34643;SDS011;26931;43.498;-1.506;2023-05-10T08:10:11;13.30;;;4.18;;
34643;SDS011;26931;43.498;-1.506;2023-05-10T08:12:37;15.95;;;3.97;;
34643;SDS011;26931;43.498;-1.506;2023-05-10T08:15:04;13.73;;;4.32;;
34643;SDS011;26931;43.498;-1.506;2023-05-10T08:17:30;14.65;;;4.63;;
34643;SDS011;26931;43.498;-1.506;2023-05-10T08:19:56;17.92;;;4.00;;
34643;SDS011;26931;43.498;-1.506;2023-05-10T08:22:22;17.98;;;4.60;;
34643;SDS011;26931;43.498;-1.506;2023-05-10T08:24:48;16.70;;;4.85;;
34643;SDS011;26931;43.498;-1.506;2023-05-10T08:27:14;11.07;;;4.25;;
34643;SDS011;26931;43.498;-1.506;2023-05-10T08:29:40;16.33;;;4.53;;
34643;SDS011;26931;43.498;-1.506;2023-05-10T08:32:06;16.52;;;4.25;;
34643;SDS011;26931;43.498;-1.506;2023-05-10T08:34:33;17.65;;;4.20;;
34643;SDS011;26931;43.498;-1.506;2023-05-10T08:37:02;20.98;;;4.47;;
34643;SDS011;26931;43.498;-1.506;2023-05-10T08:39:29;13.73;;;4.15;;
34643;SDS011;26931;43.498;-1.506;2023-05-10T08:41:59;13.10;;;4.00;;
34643;SDS011;26931;43.498;-1.506;2023-05-10T08:44:28;17.10;;;3.60;;
34643;SDS011;26931;43.498;-1.506;2023-05-10T08:47:02;15.20;;;3.92;;
34643;SDS011;26931;43.498;-1.506;2023-05-10T08:49:31;9.73;;;3.65;;
34643;SDS011;26931;43.498;-1.506;2023-05-10T08:51:59;14.68;;;4.38;;
34643;SDS011;26931;43.498;-1.506;2023-05-10T08:54:33;14.23;;;4.20;;
34643;SDS011;26931;43.498;-1.506;2023-05-10T08:56:59;12.40;;;3.90;;
34643;SDS011;26931;43.498;-1.506;2023-05-10T08:59:26;12.88;;;3.85;;
34643;SDS011;26931;43.498;-1.506;2023-05-10T09:01:53;10.25;;;3.35;;
34643;SDS011;26931;43.498;-1.506;2023-05-10T09:04:21;15.27;;;4.10;;
34643;SDS011;26931;43.498;-1.506;2023-05-10T09:06:47;12.63;;;3.88;;
34643;SDS011;26931;43.498;-1.506;2023-05-10T09:09:13;12.25;;;3.70;;
34643;SDS011;26931;43.498;-1.506;2023-05-10T09:11:41;10.52;;;3.20;;
34643;SDS011;26931;43.498;-1.506;2023-05-10T09:14:07;8.98;;;3.13;;
34643;SDS011;26931;43.498;-1.506;2023-05-10T09:16:34;12.60;;;3.28;;
34643;SDS011;26931;43.498;-1.506;2023-05-10T09:19:00;12.13;;;3.60;;
34643;SDS011;26931;43.498;-1.506;2023-05-10T09:21:26;13.68;;;3.88;;
34643;SDS011;26931;43.498;-1.506;2023-05-10T09:23:52;11.13;;;3.75;;
34643;SDS011;26931;43.498;-1.506;2023-05-10T09:26:23;12.05;;;3.30;;
34643;SDS011;26931;43.498;-1.506;2023-05-10T09:28:50;12.65;;;3.72;;
34643;SDS011;26931;43.498;-1.506;2023-05-10T09:31:21;11.38;;;3.63;;
34643;SDS011;26931;43.498;-1.506;2023-05-10T09:33:49;10.10;;;3.25;;
34643;SDS011;26931;43.498;-1.506;2023-05-10T09:36:16;13.15;;;3.60;;
34643;SDS011;26931;43.498;-1.506;2023-05-10T09:38:49;11.50;;;3.42;;
34643;SDS011;26931;43.498;-1.506;2023-05-10T09:41:19;10.65;;;3.30;;
34643;SDS011;26931;43.498;-1.506;2023-05-10T09:43:49;10.18;;;3.90;;
34643;SDS011;26931;43.498;-1.506;2023-05-10T09:46:16;10.55;;;3.40;;
34643;SDS011;26931;43.498;-1.506;2023-05-10T09:48:43;10.68;;;3.35;;
34643;SDS011;26931;43.498;-1.506;2023-05-10T09:51:15;12.07;;;3.83;;
34643;SDS011;26931;43.498;-1.506;2023-05-10T09:53:45;12.95;;;3.50;;
34643;SDS011;26931;43.498;-1.506;2023-05-10T09:56:11;13.95;;;3.67;;
34643;SDS011;26931;43.498;-1.506;2023-05-10T09:58:40;15.00;;;4.15;;
34643;SDS011;26931;43.498;-1.506;2023-05-10T10:01:10;15.45;;;3.75;;
34643;SDS011;26931;43.498;-1.506;2023-05-10T10:03:42;12.57;;;3.70;;
34643;SDS011;26931;43.498;-1.506;2023-05-10T10:06:08;13.82;;;3.47;;
34643;SDS011;26931;43.498;-1.506;2023-05-10T10:08:35;10.32;;;3.53;;
34643;SDS011;26931;43.498;-1.506;2023-05-10T10:11:01;10.20;;;3.20;;
34643;SDS011;26931;43.498;-1.506;2023-05-10T10:13:27;14.65;;;3.53;;
34643;SDS011;26931;43.498;-1.506;2023-05-10T10:15:54;13.82;;;3.53;;
34643;SDS011;26931;43.498;-1.506;2023-05-10T10:18:20;16.17;;;3.85;;
34643;SDS011;26931;43.498;-1.506;2023-05-10T10:20:52;12.32;;;3.60;;
34643;SDS011;26931;43.498;-1.506;2023-05-10T10:23:20;13.82;;;3.72;;
34643;SDS011;26931;43.498;-1.506;2023-05-10T10:25:46;11.77;;;3.80;;
34643;SDS011;26931;43.498;-1.506;2023-05-10T10:31:32;13.55;;;3.63;;
34643;SDS011;26931;43.498;-1.506;2023-05-10T10:34:27;12.75;;;3.50;;
34643;SDS011;26931;43.498;-1.506;2023-05-10T10:39:21;15.52;;;3.53;;
34643;SDS011;26931;43.498;-1.506;2023-05-10T10:41:52;13.07;;;3.65;;
34643;SDS011;26931;43.498;-1.506;2023-05-10T10:44:23;11.00;;;3.80;;
34643;SDS011;26931;43.498;-1.506;2023-05-10T10:49:24;16.02;;;4.40;;
34643;SDS011;26931;43.498;-1.506;2023-05-10T10:54:40;13.35;;;4.32;;
34643;SDS011;26931;43.498;-1.506;2023-05-10T10:57:13;12.48;;;3.97;;
34643;SDS011;26931;43.498;-1.506;2023-05-10T10:59:43;19.02;;;5.47;;
34643;SDS011;26931;43.498;-1.506;2023-05-10T11:02:09;14.55;;;4.85;;
34643;SDS011;26931;43.498;-1.506;2023-05-10T11:04:41;16.75;;;4.88;;
34643;SDS011;26931;43.498;-1.506;2023-05-10T11:07:18;17.50;;;5.47;;
34643;SDS011;26931;43.498;-1.506;2023-05-10T11:09:48;14.98;;;4.38;;
34643;SDS011;26931;43.498;-1.506;2023-05-10T11:12:14;11.82;;;3.85;;
34643;SDS011;26931;43.498;-1.506;2023-05-10T11:14:40;11.55;;;3.47;;
34643;SDS011;26931;43.498;-1.506;2023-05-10T11:17:24;15.25;;;3.50;;
34643;SDS011;26931;43.498;-1.506;2023-05-10T11:20:08;13.23;;;3.90;;
34643;SDS011;26931;43.498;-1.506;2023-05-10T11:22:54;13.38;;;4.20;;
34643;SDS011;26931;43.498;-1.506;2023-05-10T11:25:25;12.73;;;3.58;;
34643;SDS011;26931;43.498;-1.506;2023-05-10T11:27:53;17.55;;;4.15;;
34643;SDS011;26931;43.498;-1.506;2023-05-10T11:30:19;13.32;;;4.18;;
34643;SDS011;26931;43.498;-1.506;2023-05-10T11:32:46;20.35;;;4.88;;
34643;SDS011;26931;43.498;-1.506;2023-05-10T11:35:12;13.55;;;3.70;;
34643;SDS011;26931;43.498;-1.506;2023-05-10T11:37:38;8.45;;;3.03;;
34643;SDS011;26931;43.498;-1.506;2023-05-10T11:40:09;15.73;;;3.45;;
34643;SDS011;26931;43.498;-1.506;2023-05-10T11:42:38;14.63;;;3.70;;
34643;SDS011;26931;43.498;-1.506;2023-05-10T11:45:05;12.43;;;3.60;;
34643;SDS011;26931;43.498;-1.506;2023-05-10T11:47:31;12.23;;;3.42;;
34643;SDS011;26931;43.498;-1.506;2023-05-10T11:49:57;20.10;;;4.50;;
34643;SDS011;26931;43.498;-1.506;2023-05-10T11:52:24;14.30;;;3.65;;
34643;SDS011;26931;43.498;-1.506;2023-05-10T11:54:53;21.17;;;4.18;;
34643;SDS011;26931;43.498;-1.506;2023-05-10T11:57:20;13.50;;;4.40;;
34643;SDS011;26931;43.498;-1.506;2023-05-10T11:59:54;13.70;;;3.35;;
34643;SDS011;26931;43.498;-1.506;2023-05-10T12:02:21;13.10;;;4.15;;
34643;SDS011;26931;43.498;-1.506;2023-05-10T12:04:48;15.45;;;4.05;;
34643;SDS011;26931;43.498;-1.506;2023-05-10T12:07:15;11.52;;;4.18;;
34643;SDS011;26931;43.498;-1.506;2023-05-10T12:10:02;13.13;;;3.85;;
34643;SDS011;26931;43.498;-1.506;2023-05-10T12:12:36;12.63;;;3.63;;
34643;SDS011;26931;43.498;-1.506;2023-05-10T12:15:22;13.60;;;4.13;;
34643;SDS011;26931;43.498;-1.506;2023-05-10T12:17:49;14.32;;;3.30;;
34643;SDS011;26931;43.498;-1.506;2023-05-10T12:20:20;7.03;;;3.10;;
34643;SDS011;26931;43.498;-1.506;2023-05-10T12:22:51;12.18;;;3.72;;
34643;SDS011;26931;43.498;-1.506;2023-05-10T12:25:18;11.10;;;2.83;;
34643;SDS011;26931;43.498;-1.506;2023-05-10T12:27:53;9.90;;;3.15;;
34643;SDS011;26931;43.498;-1.506;2023-05-10T12:30:21;11.95;;;3.50;;
34643;SDS011;26931;43.498;-1.506;2023-05-10T12:32:52;14.15;;;4.63;;
34643;SDS011;26931;43.498;-1.506;2023-05-10T12:35:19;12.55;;;3.80;;
34643;SDS011;26931;43.498;-1.506;2023-05-10T12:37:50;15.10;;;4.22;;
34643;SDS011;26931;43.498;-1.506;2023-05-10T12:40:16;17.65;;;3.95;;
34643;SDS011;26931;43.498;-1.506;2023-05-10T12:42:42;14.85;;;3.85;;
34643;SDS011;26931;43.498;-1.506;2023-05-10T12:45:11;12.60;;;3.42;;
34643;SDS011;26931;43.498;-1.506;2023-05-10T12:47:38;11.60;;;3.45;;
34643;SDS011;26931;43.498;-1.506;2023-05-10T12:50:04;10.57;;;3.20;;
34643;SDS011;26931;43.498;-1.506;2023-05-10T12:52:31;7.90;;;2.88;;
34643;SDS011;26931;43.498;-1.506;2023-05-10T12:54:57;7.40;;;2.72;;
34643;SDS011;26931;43.498;-1.506;2023-05-10T12:57:24;12.43;;;3.15;;
34643;SDS011;26931;43.498;-1.506;2023-05-10T12:59:51;9.35;;;2.50;;
34643;SDS011;26931;43.498;-1.506;2023-05-10T13:02:17;11.18;;;3.00;;
34643;SDS011;26931;43.498;-1.506;2023-05-10T13:04:47;9.23;;;2.58;;
34643;SDS011;26931;43.498;-1.506;2023-05-10T13:07:13;6.47;;;2.33;;
34643;SDS011;26931;43.498;-1.506;2023-05-10T13:09:39;8.73;;;2.95;;
34643;SDS011;26931;43.498;-1.506;2023-05-10T13:12:05;9.10;;;2.72;;
34643;SDS011;26931;43.498;-1.506;2023-05-10T13:14:32;10.00;;;3.10;;
34643;SDS011;26931;43.498;-1.506;2023-05-10T13:16:58;7.38;;;2.70;;
34643;SDS011;26931;43.498;-1.506;2023-05-10T13:19:24;13.32;;;3.08;;
34643;SDS011;26931;43.498;-1.506;2023-05-10T13:21:51;9.75;;;3.40;;
34643;SDS011;26931;43.498;-1.506;2023-05-10T13:24:17;10.85;;;3.80;;
34643;SDS011;26931;43.498;-1.506;2023-05-10T13:26:43;7.57;;;2.60;;
34643;SDS011;26931;43.498;-1.506;2023-05-10T13:29:10;9.27;;;3.10;;
34643;SDS011;26931;43.498;-1.506;2023-05-10T13:31:36;9.77;;;2.80;;
34643;SDS011;26931;43.498;-1.506;2023-05-10T13:34:02;11.98;;;3.30;;
34643;SDS011;26931;43.498;-1.506;2023-05-10T13:36:29;10.15;;;3.10;;
34643;SDS011;26931;43.498;-1.506;2023-05-10T13:38:55;10.50;;;3.33;;
34643;SDS011;26931;43.498;-1.506;2023-05-10T13:41:21;9.68;;;3.40;;
34643;SDS011;26931;43.498;-1.506;2023-05-10T13:43:47;13.20;;;4.05;;
34643;SDS011;26931;43.498;-1.506;2023-05-10T13:46:14;14.07;;;3.90;;
34643;SDS011;26931;43.498;-1.506;2023-05-10T13:48:40;13.30;;;3.78;;
34643;SDS011;26931;43.498;-1.506;2023-05-10T13:51:06;13.40;;;3.88;;
34643;SDS011;26931;43.498;-1.506;2023-05-10T13:53:32;15.20;;;3.42;;
34643;SDS011;26931;43.498;-1.506;2023-05-10T13:55:58;12.38;;;4.00;;
34643;SDS011;26931;43.498;-1.506;2023-05-10T13:58:24;12.15;;;3.00;;
34643;SDS011;26931;43.498;-1.506;2023-05-10T14:00:51;12.18;;;3.22;;
34643;SDS011;26931;43.498;-1.506;2023-05-10T14:03:17;10.30;;;3.40;;
34643;SDS011;26931;43.498;-1.506;2023-05-10T14:05:43;14.15;;;4.28;;
34643;SDS011;26931;43.498;-1.506;2023-05-10T14:08:10;11.25;;;3.45;;
34643;SDS011;26931;43.498;-1.506;2023-05-10T14:10:38;8.70;;;3.40;;
34643;SDS011;26931;43.498;-1.506;2023-05-10T14:13:04;9.85;;;3.47;;
34643;SDS011;26931;43.498;-1.506;2023-05-10T14:15:31;11.88;;;3.35;;
34643;SDS011;26931;43.498;-1.506;2023-05-10T14:17:57;11.50;;;3.17;;
34643;SDS011;26931;43.498;-1.506;2023-05-10T14:20:23;13.13;;;3.00;;
34643;SDS011;26931;43.498;-1.506;2023-05-10T14:22:50;8.00;;;2.78;;
34643;SDS011;26931;43.498;-1.506;2023-05-10T14:25:16;9.32;;;2.72;;
34643;SDS011;26931;43.498;-1.506;2023-05-10T14:27:42;7.78;;;2.95;;
34643;SDS011;26931;43.498;-1.506;2023-05-10T14:30:09;16.80;;;3.63;;
34643;SDS011;26931;43.498;-1.506;2023-05-10T14:32:35;8.80;;;3.05;;
34643;SDS011;26931;43.498;-1.506;2023-05-10T14:35:02;10.05;;;3.40;;
34643;SDS011;26931;43.498;-1.506;2023-05-10T14:37:28;11.52;;;3.00;;
34643;SDS011;26931;43.498;-1.506;2023-05-10T14:39:55;7.90;;;3.08;;
34643;SDS011;26931;43.498;-1.506;2023-05-10T14:42:21;10.27;;;3.40;;
34643;SDS011;26931;43.498;-1.506;2023-05-10T14:44:50;9.68;;;2.85;;
34643;SDS011;26931;43.498;-1.506;2023-05-10T14:47:16;8.75;;;2.95;;